createdAt,value
2018-12-06T00:00:57.273Z,4.40
2018-12-06T00:03:26.631Z,4.40
2018-12-06T00:05:56.310Z,4.40
2018-12-06T00:08:25.916Z,4.30
2018-12-06T00:10:55.407Z,4.30
2018-12-06T00:13:24.775Z,4.20
2018-12-06T00:15:54.245Z,4.00
2018-12-06T00:18:23.674Z,4.00
2018-12-06T00:20:53.103Z,3.90
2018-12-06T00:23:22.515Z,3.80
2018-12-06T00:25:52.065Z,3.70
2018-12-06T00:28:21.517Z,3.70
2018-12-06T00:30:51.146Z,3.70
2018-12-06T00:33:20.524Z,3.80
2018-12-06T00:35:49.936Z,3.80
2018-12-06T00:38:19.290Z,3.70
2018-12-06T00:40:48.891Z,3.70
2018-12-06T00:43:18.275Z,3.60
2018-12-06T00:45:47.640Z,3.50
2018-12-06T00:48:17.016Z,3.50
2018-12-06T00:50:46.412Z,3.40
2018-12-06T00:53:15.758Z,3.40
2018-12-06T00:55:45.099Z,3.50
2018-12-06T00:58:14.480Z,3.40
2018-12-06T01:00:43.868Z,3.40
2018-12-06T01:03:13.349Z,3.40
2018-12-06T01:05:42.969Z,3.50
2018-12-06T01:08:12.558Z,3.50
2018-12-06T01:10:42.057Z,3.30
2018-12-06T01:13:11.470Z,3.30
2018-12-06T01:15:41.434Z,3.10
2018-12-06T01:18:10.974Z,3.00
2018-12-06T01:20:40.380Z,3.00
2018-12-06T01:23:10.443Z,2.90
2018-12-06T01:25:39.907Z,3.00
2018-12-06T01:28:10.313Z,3.00
2018-12-06T01:30:40.041Z,2.90
2018-12-06T01:33:41.024Z,2.90
2018-12-06T01:36:10.559Z,2.90
2018-12-06T01:38:40.135Z,2.90
2018-12-06T01:41:10.418Z,2.90
2018-12-06T01:43:39.839Z,2.90
2018-12-06T01:46:09.164Z,2.90
2018-12-06T01:48:38.849Z,2.90
2018-12-06T01:51:08.209Z,2.90
2018-12-06T01:53:37.667Z,2.90
2018-12-06T01:56:07.309Z,3.00
2018-12-06T01:58:36.743Z,3.20
2018-12-06T02:01:06.242Z,3.10
2018-12-06T02:03:36.088Z,3.10
2018-12-06T02:06:05.892Z,3.20
2018-12-06T02:08:35.631Z,3.20
2018-12-06T02:11:05.039Z,3.10
2018-12-06T02:13:35.190Z,3.20
2018-12-06T02:16:05.044Z,3.10
2018-12-06T02:18:34.563Z,3.10
2018-12-06T02:21:04.319Z,3.20
2018-12-06T02:23:33.720Z,3.20
2018-12-06T02:26:03.474Z,3.20
2018-12-06T02:28:34.295Z,3.20
2018-12-06T02:31:04.289Z,3.20
2018-12-06T02:33:33.606Z,3.20
2018-12-06T02:36:03.246Z,3.10
2018-12-06T02:38:32.999Z,3.10
2018-12-06T02:41:02.367Z,3.10
2018-12-06T02:43:31.770Z,3.10
2018-12-06T02:46:01.213Z,3.10
2018-12-06T02:48:30.530Z,3.10
2018-12-06T02:50:59.960Z,3.10
2018-12-06T02:53:29.284Z,3.00
2018-12-06T02:55:59.452Z,3.00
2018-12-06T02:58:30.573Z,3.00
2018-12-06T03:01:00.833Z,3.00
2018-12-06T03:03:30.389Z,3.00
2018-12-06T03:05:59.776Z,2.80
2018-12-06T03:08:29.241Z,2.70
2018-12-06T03:10:59.079Z,2.70
2018-12-06T03:13:28.557Z,2.80
2018-12-06T03:15:58.031Z,2.80
2018-12-06T03:18:27.648Z,2.80
2018-12-06T03:20:57.080Z,2.80
2018-12-06T03:23:26.544Z,2.90
2018-12-06T03:25:56.014Z,2.90
2018-12-06T03:28:25.562Z,2.90
2018-12-06T03:30:55.401Z,3.10
2018-12-06T03:33:24.855Z,3.20
2018-12-06T03:35:54.308Z,3.30
2018-12-06T03:38:23.979Z,3.40
2018-12-06T03:40:53.434Z,3.40
2018-12-06T03:43:22.991Z,3.50
2018-12-06T03:45:52.592Z,3.70
2018-12-06T03:48:22.077Z,3.80
2018-12-06T03:50:51.537Z,3.80
2018-12-06T03:53:20.984Z,3.80
2018-12-06T03:55:50.655Z,3.90
2018-12-06T03:58:20.471Z,3.80
2018-12-06T04:00:50.050Z,3.80
2018-12-06T04:03:19.833Z,3.80
2018-12-06T04:05:49.203Z,3.90
2018-12-06T04:08:18.695Z,3.90
2018-12-06T04:10:48.719Z,4.00
2018-12-06T04:13:18.262Z,4.00
2018-12-06T04:15:48.042Z,4.10
2018-12-06T04:18:17.464Z,4.10
2018-12-06T04:20:46.893Z,4.10
2018-12-06T04:23:16.681Z,4.10
2018-12-06T04:25:46.091Z,4.20
2018-12-06T04:28:15.550Z,4.20
2018-12-06T04:30:45.181Z,4.20
2018-12-06T04:33:14.656Z,4.20
2018-12-06T04:35:44.037Z,4.00
2018-12-06T04:38:13.977Z,3.90
2018-12-06T04:40:48.767Z,3.90
2018-12-06T04:43:18.168Z,3.80
2018-12-06T04:45:47.978Z,3.80
2018-12-06T04:48:21.964Z,3.60
2018-12-06T04:50:49.070Z,3.50
2018-12-06T04:53:18.607Z,3.30
2018-12-06T04:55:48.139Z,3.20
2018-12-06T04:58:17.631Z,3.20
2018-12-06T05:00:47.043Z,3.20
2018-12-06T05:03:16.436Z,3.10
2018-12-06T05:05:46.670Z,3.10
2018-12-06T05:08:16.235Z,3.10
2018-12-06T05:10:45.971Z,3.10
2018-12-06T05:13:15.343Z,3.20
2018-12-06T05:15:44.713Z,3.10
2018-12-06T05:18:14.060Z,3.20
2018-12-06T05:20:43.458Z,3.10
2018-12-06T05:23:17.483Z,3.20
2018-12-06T05:25:46.883Z,3.20
2018-12-06T05:28:16.526Z,3.20
2018-12-06T05:30:46.022Z,3.20
2018-12-06T05:33:15.686Z,3.30
2018-12-06T05:35:45.339Z,3.40
2018-12-06T05:38:15.432Z,3.40
2018-12-06T05:40:45.017Z,3.50
2018-12-06T05:43:15.116Z,3.50
2018-12-06T05:45:46.258Z,3.70
2018-12-06T05:48:15.655Z,3.70
2018-12-06T05:50:45.052Z,3.70
2018-12-06T05:53:14.458Z,3.70
2018-12-06T05:55:43.871Z,3.70
2018-12-06T05:58:13.219Z,3.70
2018-12-06T06:00:42.812Z,3.70
2018-12-06T06:03:12.516Z,3.70
2018-12-06T06:05:41.906Z,3.70
2018-12-06T06:08:12.251Z,3.70
2018-12-06T06:10:41.628Z,3.70
2018-12-06T06:13:11.273Z,3.80
2018-12-06T06:15:40.828Z,3.80
2018-12-06T06:18:11.146Z,3.80
2018-12-06T06:20:40.658Z,3.80
2018-12-06T06:23:11.100Z,3.90
2018-12-06T06:25:45.023Z,4.00
2018-12-06T06:28:14.441Z,4.00
2018-12-06T06:30:44.087Z,4.00
2018-12-06T06:33:13.626Z,3.80
2018-12-06T06:35:43.107Z,3.90
2018-12-06T06:38:12.671Z,3.80
2018-12-06T06:40:42.324Z,3.90
2018-12-06T06:43:12.014Z,3.90
2018-12-06T06:45:41.870Z,3.80
2018-12-06T06:48:11.527Z,3.90
2018-12-06T06:50:41.081Z,3.80
2018-12-06T06:53:11.357Z,3.80
2018-12-06T06:55:40.787Z,3.70
2018-12-06T06:58:11.120Z,3.60
2018-12-06T07:00:40.584Z,3.60
2018-12-06T07:03:10.045Z,3.60
2018-12-06T07:05:39.590Z,3.60
2018-12-06T07:08:09.147Z,3.60
2018-12-06T07:10:38.634Z,3.60
2018-12-06T07:13:08.199Z,3.60
2018-12-06T07:15:37.644Z,3.60
2018-12-06T07:18:07.097Z,3.70
2018-12-06T07:20:36.858Z,3.80
2018-12-06T07:23:06.947Z,3.90
2018-12-06T07:25:37.006Z,4.00
2018-12-06T07:28:06.451Z,4.00
2018-12-06T07:30:36.493Z,4.00
2018-12-06T07:33:05.911Z,4.00
2018-12-06T07:38:15.444Z,4.20
2018-12-06T07:40:45.112Z,4.30
2018-12-06T07:43:14.573Z,4.20
2018-12-06T07:45:44.050Z,4.20
2018-12-06T07:48:13.795Z,4.20
2018-12-06T07:50:43.583Z,4.30
2018-12-06T07:53:13.254Z,4.40
2018-12-06T07:55:42.652Z,4.50
2018-12-06T07:58:12.115Z,4.60
2018-12-06T08:00:41.537Z,4.70
2018-12-06T08:03:11.397Z,4.70
2018-12-06T08:05:41.099Z,4.70
2018-12-06T08:08:11.459Z,4.70
2018-12-06T08:10:41.039Z,4.50
2018-12-06T08:13:11.363Z,4.40
2018-12-06T08:15:41.101Z,4.20
2018-12-06T08:18:11.403Z,4.20
2018-12-06T08:20:40.980Z,4.20
2018-12-06T08:23:11.462Z,4.20
2018-12-06T08:25:41.471Z,4.30
2018-12-06T08:28:11.438Z,4.30
2018-12-06T08:30:42.224Z,4.30
2018-12-06T08:33:11.827Z,4.40
2018-12-06T08:35:41.307Z,4.40
2018-12-06T08:38:12.329Z,4.40
2018-12-06T08:40:41.862Z,4.40
2018-12-06T08:43:11.488Z,4.50
2018-12-06T08:45:40.952Z,4.50
2018-12-06T08:48:11.427Z,4.60
2018-12-06T08:50:40.923Z,4.60
2018-12-06T08:53:11.228Z,4.70
2018-12-06T08:55:41.151Z,4.70
2018-12-06T08:58:11.558Z,4.70
2018-12-06T09:00:41.091Z,4.80
2018-12-06T09:03:11.759Z,4.80
2018-12-06T09:05:41.676Z,4.80
2018-12-06T09:08:11.489Z,4.80
2018-12-06T09:10:41.279Z,4.80
2018-12-06T09:13:11.579Z,4.80
2018-12-06T09:15:41.135Z,4.90
2018-12-06T09:18:11.487Z,5.00
2018-12-06T09:20:40.853Z,4.90
2018-12-06T09:23:10.241Z,4.90
2018-12-06T09:25:39.655Z,5.00
2018-12-06T09:28:09.131Z,5.00
2018-12-06T09:30:38.612Z,5.00
2018-12-06T09:33:08.168Z,5.00
2018-12-06T09:35:37.650Z,4.90
2018-12-06T09:38:07.348Z,4.90
2018-12-06T09:40:36.845Z,4.90
2018-12-06T09:43:06.793Z,4.90
2018-12-06T09:45:36.463Z,4.90
2018-12-06T09:48:05.908Z,5.00
2018-12-06T09:50:35.337Z,5.00
2018-12-06T09:53:05.159Z,4.90
2018-12-06T09:55:34.637Z,4.90
2018-12-06T09:58:04.200Z,4.90
2018-12-06T10:00:34.529Z,4.90
2018-12-06T10:03:04.300Z,4.90
2018-12-06T10:05:33.827Z,4.90
2018-12-06T10:08:03.284Z,5.00
2018-12-06T10:10:32.829Z,5.00
2018-12-06T10:13:02.344Z,5.00
2018-12-06T10:15:31.998Z,4.90
2018-12-06T10:18:01.404Z,4.90
2018-12-06T10:20:30.909Z,4.90
2018-12-06T10:23:00.676Z,4.80
2018-12-06T10:25:30.082Z,4.90
2018-12-06T10:27:59.605Z,5.00
2018-12-06T10:30:29.567Z,5.00
2018-12-06T10:32:58.997Z,5.00
2018-12-06T10:35:28.356Z,5.00
2018-12-06T10:37:57.723Z,5.10
2018-12-06T10:40:27.032Z,5.10
2018-12-06T10:42:58.917Z,5.10
2018-12-06T10:45:28.332Z,5.10
2018-12-06T10:47:57.689Z,5.10
2018-12-06T10:50:27.179Z,5.10
2018-12-06T10:52:56.670Z,5.00
2018-12-06T10:55:26.101Z,5.00
2018-12-06T10:57:55.635Z,5.00
2018-12-06T11:01:29.811Z,5.00
2018-12-06T11:04:04.046Z,5.00
2018-12-06T11:06:33.511Z,5.00
2018-12-06T11:09:04.386Z,5.00
2018-12-06T11:11:33.812Z,5.00
2018-12-06T11:14:03.787Z,4.90
2018-12-06T11:16:33.163Z,5.00
2018-12-06T11:19:02.878Z,5.10
2018-12-06T11:21:32.262Z,5.00
2018-12-06T11:24:01.947Z,5.00
2018-12-06T11:26:34.558Z,5.10
2018-12-06T11:29:04.514Z,5.00
2018-12-06T11:31:33.920Z,5.00
2018-12-06T11:34:03.546Z,5.00
2018-12-06T11:36:33.014Z,4.90
2018-12-06T11:39:02.904Z,4.90
2018-12-06T11:41:32.370Z,4.90
2018-12-06T11:44:02.132Z,4.90
2018-12-06T11:46:31.908Z,5.00
2018-12-06T11:49:01.288Z,5.10
2018-12-06T11:51:30.704Z,5.00
2018-12-06T11:54:00.067Z,5.00
2018-12-06T11:56:29.467Z,4.90
2018-12-06T11:58:58.855Z,5.00
2018-12-06T12:01:28.451Z,4.90
2018-12-06T12:03:57.841Z,4.90
2018-12-06T12:06:27.593Z,5.00
2018-12-06T12:08:57.375Z,5.00
2018-12-06T12:11:27.008Z,5.10
2018-12-06T12:13:56.367Z,5.10
2018-12-06T12:16:25.751Z,5.10
2018-12-06T12:18:55.311Z,5.10
2018-12-06T12:21:24.759Z,5.00
2018-12-06T12:23:54.153Z,5.10
2018-12-06T12:26:23.886Z,5.10
2018-12-06T12:28:53.296Z,5.00
2018-12-06T12:31:22.722Z,5.00
2018-12-06T12:33:52.086Z,5.00
2018-12-06T12:36:21.524Z,5.00
2018-12-06T12:38:51.027Z,5.00
2018-12-06T12:41:20.420Z,5.00
2018-12-06T12:43:50.154Z,5.00
2018-12-06T12:46:19.796Z,4.90
2018-12-06T12:48:49.599Z,4.90
2018-12-06T12:51:18.959Z,5.00
2018-12-06T12:53:48.455Z,4.30
2018-12-06T12:56:17.915Z,4.90
2018-12-06T12:58:47.761Z,4.90
2018-12-06T13:01:17.154Z,4.90
2018-12-06T13:03:46.558Z,4.90
2018-12-06T13:06:16.212Z,4.90
2018-12-06T13:08:45.757Z,4.80
2018-12-06T13:11:15.130Z,4.90
2018-12-06T13:13:44.483Z,4.90
2018-12-06T13:16:13.867Z,4.90
2018-12-06T13:18:43.198Z,4.90
2018-12-06T13:21:12.655Z,4.90
2018-12-06T13:23:42.067Z,4.90
2018-12-06T13:26:12.422Z,4.90
2018-12-06T13:28:41.906Z,5.00
2018-12-06T13:31:12.491Z,5.00
2018-12-06T13:33:42.304Z,4.90
2018-12-06T13:36:12.559Z,4.90
2018-12-06T13:38:42.216Z,4.90
2018-12-06T13:41:12.461Z,4.90
2018-12-06T13:43:41.952Z,4.90
2018-12-06T13:46:12.619Z,4.90
2018-12-06T13:48:42.197Z,4.90
2018-12-06T13:51:12.523Z,4.90
2018-12-06T13:53:42.029Z,4.90
2018-12-06T13:56:12.339Z,4.90
2018-12-06T13:58:41.725Z,4.90
2018-12-06T14:01:11.342Z,4.90
2018-12-06T14:03:41.095Z,4.90
2018-12-06T14:06:10.765Z,4.90
2018-12-06T14:08:40.199Z,4.90
2018-12-06T14:11:09.863Z,4.90
2018-12-06T14:13:39.739Z,4.90
2018-12-06T14:16:10.609Z,4.90
2018-12-06T14:18:40.296Z,4.80
2018-12-06T14:21:09.656Z,4.80
2018-12-06T14:23:39.420Z,4.90
2018-12-06T14:26:08.932Z,4.90
2018-12-06T14:28:38.315Z,4.90
2018-12-06T14:31:07.728Z,4.90
2018-12-06T14:33:37.059Z,4.90
2018-12-06T14:36:06.695Z,4.80
2018-12-06T14:38:36.076Z,4.80
2018-12-06T14:41:05.936Z,4.80
2018-12-06T14:43:35.553Z,4.70
2018-12-06T14:46:04.968Z,4.80
2018-12-06T14:48:34.727Z,4.80
2018-12-06T14:51:04.272Z,4.80
2018-12-06T14:53:33.693Z,4.80
2018-12-06T14:56:03.327Z,4.70
2018-12-06T14:58:32.744Z,4.70
2018-12-06T15:01:02.508Z,4.70
2018-12-06T15:03:31.991Z,4.80
2018-12-06T15:06:01.395Z,4.90
2018-12-06T15:08:31.138Z,4.80
2018-12-06T15:11:00.530Z,4.90
2018-12-06T15:13:29.872Z,4.90
2018-12-06T15:15:59.226Z,4.80
2018-12-06T15:18:28.623Z,4.70
2018-12-06T15:20:57.990Z,4.80
2018-12-06T15:23:27.549Z,4.70
2018-12-06T15:25:56.914Z,4.70
2018-12-06T15:28:26.937Z,4.70
2018-12-06T15:30:56.335Z,4.70
2018-12-06T15:33:25.795Z,4.80
2018-12-06T15:35:55.159Z,4.80
2018-12-06T15:38:24.814Z,4.70
2018-12-06T15:40:54.545Z,4.80
2018-12-06T15:43:24.197Z,4.70
2018-12-06T15:45:53.653Z,4.80
2018-12-06T15:48:23.064Z,4.70
2018-12-06T15:50:52.546Z,4.70
2018-12-06T15:53:21.878Z,4.70
2018-12-06T15:55:51.506Z,4.60
2018-12-06T15:58:20.852Z,4.60
2018-12-06T16:00:50.187Z,4.50
2018-12-06T16:03:19.670Z,4.60
2018-12-06T16:05:49.062Z,4.60
2018-12-06T16:08:18.463Z,4.60
2018-12-06T16:10:48.949Z,4.60
2018-12-06T16:13:18.534Z,4.60
2018-12-06T16:15:48.263Z,4.60
2018-12-06T16:18:17.740Z,4.60
2018-12-06T16:20:47.159Z,4.60
2018-12-06T16:23:16.569Z,4.60
2018-12-06T16:25:46.172Z,4.70
2018-12-06T16:28:15.615Z,4.70
2018-12-06T16:30:45.084Z,4.70
2018-12-06T16:33:14.726Z,4.70
2018-12-06T16:35:44.091Z,4.60
2018-12-06T16:38:13.482Z,4.60
2018-12-06T16:40:42.918Z,4.60
2018-12-06T16:43:12.995Z,4.60
2018-12-06T16:45:42.690Z,4.60
2018-12-06T16:48:13.092Z,4.50
2018-12-06T16:50:42.582Z,4.50
2018-12-06T16:53:14.237Z,4.50
2018-12-06T16:55:43.804Z,4.50
2018-12-06T16:58:13.802Z,4.50
2018-12-06T17:00:43.747Z,4.50
2018-12-06T17:03:13.803Z,4.40
2018-12-06T17:05:43.182Z,4.30
2018-12-06T17:08:12.999Z,4.30
2018-12-06T17:10:42.494Z,4.20
2018-12-06T17:13:12.796Z,4.20
2018-12-06T17:15:42.204Z,4.20
2018-12-06T17:18:11.684Z,4.20
2018-12-06T17:20:41.102Z,4.20
2018-12-06T17:23:10.731Z,4.30
2018-12-06T17:25:40.361Z,4.30
2018-12-06T17:28:09.783Z,4.30
2018-12-06T17:30:39.437Z,4.20
2018-12-06T17:33:08.814Z,4.20
2018-12-06T17:35:38.335Z,4.30
2018-12-06T17:38:08.027Z,4.20
2018-12-06T17:40:38.069Z,4.20
2018-12-06T17:43:07.729Z,4.30
2018-12-06T17:45:37.230Z,4.30
2018-12-06T17:48:06.946Z,4.20
2018-12-06T17:50:36.493Z,4.20
2018-12-06T17:53:05.984Z,4.30
2018-12-06T17:55:37.415Z,4.30
2018-12-06T17:58:06.749Z,4.10
2018-12-06T18:00:36.119Z,4.00
2018-12-06T18:03:05.587Z,3.90
2018-12-06T18:05:34.988Z,3.90
2018-12-06T18:08:04.487Z,3.90
2018-12-06T18:10:34.308Z,3.90
2018-12-06T18:13:04.462Z,3.90
2018-12-06T18:15:34.460Z,3.90
2018-12-06T18:18:03.847Z,3.80
2018-12-06T18:20:33.808Z,3.70
2018-12-06T18:23:03.599Z,3.70
2018-12-06T18:25:33.005Z,3.80
2018-12-06T18:28:02.633Z,3.80
2018-12-06T18:30:32.073Z,3.80
2018-12-06T18:33:01.468Z,3.80
2018-12-06T18:35:30.815Z,3.80
2018-12-06T18:38:00.130Z,3.80
2018-12-06T18:40:29.473Z,3.80
2018-12-06T18:42:58.983Z,3.90
2018-12-06T18:45:28.608Z,3.90
2018-12-06T18:47:58.055Z,3.80
2018-12-06T18:50:27.489Z,3.80
2018-12-06T18:52:57.180Z,3.80
2018-12-06T18:55:26.820Z,3.80
2018-12-06T18:57:56.222Z,3.90
2018-12-06T19:00:26.918Z,3.90
2018-12-06T19:02:56.467Z,3.90
2018-12-06T19:05:25.885Z,4.00
2018-12-06T19:07:55.391Z,4.00
2018-12-06T19:10:24.946Z,4.00
2018-12-06T19:12:54.488Z,4.00
2018-12-06T19:15:24.264Z,4.00
2018-12-06T19:17:53.635Z,4.00
2018-12-06T19:20:22.987Z,4.00
2018-12-06T19:22:52.436Z,4.00
2018-12-06T19:25:21.855Z,4.00
2018-12-06T19:27:51.966Z,4.00
2018-12-06T19:30:22.085Z,4.00
2018-12-06T19:32:57.725Z,4.00
2018-12-06T19:35:23.079Z,4.00
2018-12-06T19:37:53.121Z,4.00
2018-12-06T19:40:22.634Z,4.00
2018-12-06T19:42:52.108Z,4.10
2018-12-06T19:45:21.612Z,4.10
2018-12-06T19:47:51.298Z,4.10
2018-12-06T19:50:20.690Z,4.20
2018-12-06T19:52:50.314Z,4.20
2018-12-06T19:55:19.981Z,4.10
2018-12-06T19:57:49.463Z,4.10
2018-12-06T20:00:19.853Z,4.10
2018-12-06T20:02:50.255Z,4.10
2018-12-06T20:05:19.883Z,4.00
2018-12-06T20:07:49.323Z,4.00
2018-12-06T20:10:19.508Z,4.10
2018-12-06T20:12:49.568Z,4.10
2018-12-06T20:15:19.418Z,4.10
2018-12-06T20:17:48.942Z,4.10
2018-12-06T20:20:23.480Z,4.10
2018-12-06T20:22:49.929Z,4.10
2018-12-06T20:25:19.418Z,4.20
2018-12-06T20:27:50.494Z,4.20
2018-12-06T20:30:20.115Z,4.20
2018-12-06T20:32:49.580Z,4.10
2018-12-06T20:35:18.966Z,4.10
2018-12-06T20:37:48.407Z,4.10
2018-12-06T20:40:17.779Z,4.10
2018-12-06T20:42:47.234Z,4.10
2018-12-06T20:45:16.561Z,4.20
2018-12-06T20:47:46.019Z,4.20
2018-12-06T20:50:15.367Z,4.20
2018-12-06T20:52:45.364Z,4.20
2018-12-06T20:55:14.734Z,4.20
2018-12-06T20:57:44.439Z,4.30
2018-12-06T21:00:14.683Z,4.30
2018-12-06T21:02:44.498Z,4.30
2018-12-06T21:05:13.887Z,4.30
2018-12-06T21:07:43.490Z,4.40
2018-12-06T21:10:13.873Z,4.40
2018-12-06T21:12:43.315Z,4.40
2018-12-06T21:15:13.770Z,4.40
2018-12-06T21:17:43.148Z,4.40
2018-12-06T21:20:12.968Z,4.40
2018-12-06T21:22:42.386Z,4.30
2018-12-06T21:25:11.776Z,4.40
2018-12-06T21:27:41.251Z,4.40
2018-12-06T21:30:11.044Z,4.40
2018-12-06T21:32:40.460Z,4.40
2018-12-06T21:35:10.097Z,4.40
2018-12-06T21:37:39.531Z,4.40
2018-12-06T21:40:09.106Z,4.30
2018-12-06T21:42:38.507Z,4.30
2018-12-06T21:45:08.291Z,4.30
2018-12-06T21:47:37.648Z,4.30
2018-12-06T21:50:08.755Z,4.30
2018-12-06T21:52:38.128Z,4.40
2018-12-06T21:55:07.792Z,4.30
2018-12-06T21:57:37.179Z,4.40
2018-12-06T22:00:07.584Z,4.50
2018-12-06T22:02:37.064Z,4.50
2018-12-06T22:05:06.941Z,4.60
2018-12-06T22:07:36.347Z,4.60
2018-12-06T22:10:07.590Z,4.60
2018-12-06T22:12:37.251Z,4.70
2018-12-06T22:15:07.680Z,4.70
2018-12-06T22:17:37.151Z,4.80
2018-12-06T22:20:06.694Z,4.90
2018-12-06T22:22:36.195Z,5.00
2018-12-06T22:25:05.772Z,4.90
2018-12-06T22:27:35.280Z,5.00
2018-12-06T22:30:05.464Z,5.00
2018-12-06T22:32:34.871Z,5.00
2018-12-06T22:35:04.684Z,5.10
2018-12-06T22:37:40.700Z,5.00
2018-12-06T22:40:10.186Z,4.90
2018-12-06T22:42:39.677Z,4.90
2018-12-06T22:45:20.864Z,4.90
2018-12-06T22:47:50.623Z,4.90
2018-12-06T22:50:20.057Z,4.90
2018-12-06T22:52:56.112Z,4.90
2018-12-06T22:55:25.893Z,4.90
2018-12-06T22:57:55.919Z,4.90
2018-12-06T23:00:30.803Z,4.90
2018-12-06T23:03:00.611Z,4.80
2018-12-06T23:05:30.089Z,4.80
2018-12-06T23:07:59.516Z,4.90
2018-12-06T23:10:28.858Z,5.00
2018-12-06T23:12:58.251Z,5.00
2018-12-06T23:15:27.583Z,5.10
2018-12-06T23:17:56.904Z,5.20
2018-12-06T23:20:26.291Z,5.20
2018-12-06T23:22:55.746Z,5.20
2018-12-06T23:25:25.127Z,5.20
2018-12-06T23:27:54.924Z,5.30
2018-12-06T23:30:24.430Z,5.40
2018-12-06T23:32:54.310Z,5.40
2018-12-06T23:35:24.015Z,5.40
2018-12-06T23:37:53.686Z,5.50
2018-12-06T23:40:23.183Z,5.50
2018-12-06T23:42:52.551Z,5.50
2018-12-06T23:45:21.945Z,5.40
2018-12-06T23:47:51.317Z,5.50
2018-12-06T23:50:20.695Z,5.50
2018-12-06T23:52:50.036Z,5.50
2018-12-06T23:55:19.503Z,5.60
2018-12-06T23:57:48.795Z,5.60
